createdAt,value
2019-05-06T00:01:39.602Z,60.81
2019-05-06T00:04:10.481Z,60.84
2019-05-06T00:06:41.377Z,60.96
2019-05-06T00:09:12.247Z,61.11
2019-05-06T00:11:44.820Z,61.15
2019-05-06T00:14:15.798Z,61.08
2019-05-06T00:16:46.711Z,61.26
2019-05-06T00:19:17.583Z,61.37
2019-05-06T00:21:48.526Z,61.41
2019-05-06T00:24:19.431Z,61.50
2019-05-06T00:26:55.175Z,61.51
2019-05-06T00:29:26.690Z,61.52
2019-05-06T00:31:57.562Z,61.80
2019-05-06T00:34:28.467Z,61.71
2019-05-06T00:36:59.610Z,62.06
2019-05-06T00:39:35.100Z,62.06
2019-05-06T00:42:24.605Z,61.99
2019-05-06T00:44:55.573Z,62.29
2019-05-06T00:47:26.469Z,62.48
2019-05-06T00:49:57.377Z,62.36
2019-05-06T00:52:28.254Z,62.54
2019-05-06T00:54:59.896Z,62.60
2019-05-06T00:57:45.888Z,62.96
2019-05-06T01:00:19.883Z,62.99
2019-05-06T01:02:50.777Z,63.32
2019-05-06T01:05:21.654Z,63.38
2019-05-06T01:07:54.711Z,63.55
2019-05-06T01:10:25.123Z,63.44
2019-05-06T01:13:00.314Z,63.55
2019-05-06T01:15:31.568Z,63.77
2019-05-06T01:18:04.240Z,63.87
2019-05-06T01:20:35.052Z,63.92
2019-05-06T01:23:05.946Z,64.20
2019-05-06T01:25:36.817Z,64.30
2019-05-06T01:28:07.710Z,64.42
2019-05-06T01:30:38.622Z,64.50
2019-05-06T01:33:09.533Z,64.79
2019-05-06T01:35:41.519Z,64.71
2019-05-06T01:38:29.131Z,64.96
2019-05-06T01:41:13.862Z,65.14
2019-05-06T01:43:45.912Z,65.22
2019-05-06T01:46:16.818Z,65.45
2019-05-06T01:48:47.715Z,65.34
2019-05-06T01:51:20.127Z,65.49
2019-05-06T01:53:51.123Z,65.81
2019-05-06T01:56:23.979Z,65.79
2019-05-06T01:58:54.598Z,65.79
2019-05-06T02:01:25.842Z,66.03
2019-05-06T02:03:56.753Z,65.89
2019-05-06T02:06:27.637Z,65.89
2019-05-06T02:08:58.540Z,66.11
2019-05-06T02:11:29.418Z,66.29
2019-05-06T02:14:00.297Z,66.41
2019-05-06T02:16:31.201Z,66.59
2019-05-06T02:19:04.087Z,66.48
2019-05-06T02:21:34.496Z,66.67
2019-05-06T02:24:18.956Z,66.66
2019-05-06T02:26:49.870Z,66.81
2019-05-06T02:29:24.489Z,66.85
2019-05-06T02:32:15.393Z,66.86
2019-05-06T02:34:46.209Z,66.99
2019-05-06T02:37:21.222Z,67.08
2019-05-06T02:39:53.308Z,67.19
2019-05-06T02:42:24.483Z,67.29
2019-05-06T02:44:55.383Z,67.31
2019-05-06T02:47:27.927Z,67.34
2019-05-06T02:50:06.227Z,67.18
2019-05-06T02:52:37.106Z,67.30
2019-05-06T02:55:07.991Z,67.30
2019-05-06T02:57:38.885Z,67.07
2019-05-06T03:00:15.818Z,67.32
2019-05-06T03:02:48.327Z,67.23
2019-05-06T03:05:19.555Z,67.13
2019-05-06T03:07:50.453Z,67.23
2019-05-06T03:10:24.319Z,67.15
2019-05-06T03:12:54.113Z,67.13
2019-05-06T03:15:24.981Z,67.26
2019-05-06T03:17:55.890Z,67.37
2019-05-06T03:20:53.277Z,67.54
2019-05-06T03:23:38.926Z,67.54
2019-05-06T03:26:13.409Z,67.52
2019-05-06T03:28:44.066Z,67.87
2019-05-06T03:31:16.709Z,67.74
2019-05-06T03:34:09.138Z,67.91
2019-05-06T03:36:27.178Z,67.81
2019-05-06T03:38:53.769Z,67.79
2019-05-06T03:41:26.727Z,67.71
2019-05-06T03:43:57.427Z,67.80
2019-05-06T03:46:28.085Z,67.84
2019-05-06T03:49:09.675Z,67.85
2019-05-06T03:51:42.862Z,67.90
2019-05-06T03:54:13.892Z,67.99
2019-05-06T03:56:44.841Z,67.81
2019-05-06T03:59:16.273Z,67.95
2019-05-06T04:01:47.144Z,67.84
2019-05-06T04:04:18.037Z,67.94
2019-05-06T04:06:48.943Z,67.97
2019-05-06T04:09:19.837Z,67.85
2019-05-06T04:11:53.871Z,68.10
2019-05-06T04:14:23.857Z,68.10
2019-05-06T04:16:56.703Z,68.01
2019-05-06T04:19:44.328Z,68.37
2019-05-06T04:22:16.858Z,68.14
2019-05-06T04:24:49.401Z,68.27
2019-05-06T04:27:46.462Z,68.19
2019-05-06T04:30:18.239Z,68.18
2019-05-06T04:32:48.577Z,68.19
2019-05-06T04:35:19.333Z,68.03
2019-05-06T04:37:53.521Z,68.08
2019-05-06T04:40:23.863Z,68.07
2019-05-06T04:42:55.576Z,68.08
2019-05-06T04:45:26.452Z,67.97
2019-05-06T04:47:57.399Z,68.10
2019-05-06T04:50:28.280Z,68.12
2019-05-06T04:53:05.603Z,68.05
2019-05-06T04:55:36.895Z,68.07
2019-05-06T04:58:07.760Z,68.09
2019-05-06T05:00:39.226Z,68.05
2019-05-06T05:03:10.134Z,68.16
2019-05-06T05:05:41.023Z,68.08
2019-05-06T05:08:13.364Z,68.05
2019-05-06T05:10:45.905Z,68.10
2019-05-06T05:13:27.484Z,68.01
2019-05-06T05:16:02.713Z,67.89
2019-05-06T05:18:38.324Z,67.87
2019-05-06T05:21:09.194Z,67.94
2019-05-06T05:23:40.093Z,67.83
2019-05-06T05:26:12.069Z,67.83
2019-05-06T05:28:43.126Z,67.81
2019-05-06T05:31:14.100Z,67.74
2019-05-06T05:33:45.000Z,67.70
2019-05-06T05:36:15.891Z,67.57
2019-05-06T05:38:47.066Z,67.43
2019-05-06T05:41:17.934Z,67.28
2019-05-06T05:43:52.575Z,67.10
2019-05-06T05:46:23.140Z,66.77
2019-05-06T05:49:07.654Z,66.70
2019-05-06T05:51:38.560Z,66.28
2019-05-06T05:54:09.430Z,66.37
2019-05-06T05:56:42.990Z,66.07
2019-05-06T05:59:13.252Z,65.77
2019-05-06T06:01:44.151Z,65.78
2019-05-06T06:04:15.404Z,65.53
2019-05-06T06:06:46.295Z,65.18
2019-05-06T06:09:17.169Z,64.95
2019-05-06T06:11:55.870Z,65.03
2019-05-06T06:14:28.831Z,64.77
2019-05-06T06:17:12.978Z,64.71
2019-05-06T06:19:45.763Z,64.42
2019-05-06T06:22:18.317Z,63.57
2019-05-06T06:24:49.181Z,63.43
2019-05-06T06:27:22.236Z,63.76
2019-05-06T06:29:53.244Z,63.43
2019-05-06T06:32:25.784Z,63.37
2019-05-06T06:35:10.783Z,62.58
2019-05-06T06:37:36.229Z,62.22
2019-05-06T06:40:09.422Z,62.00
2019-05-06T06:42:42.609Z,62.05
2019-05-06T06:45:12.856Z,61.86
2019-05-06T06:47:43.756Z,61.67
2019-05-06T06:50:14.716Z,61.36
2019-05-06T06:52:45.609Z,61.43
2019-05-06T06:55:18.536Z,61.22
2019-05-06T06:57:48.834Z,61.15
2019-05-06T07:00:22.302Z,61.02
2019-05-06T07:03:12.262Z,61.11
2019-05-06T07:05:47.362Z,61.11
2019-05-06T07:08:33.518Z,60.92
2019-05-06T07:10:52.519Z,61.08
2019-05-06T07:13:23.519Z,60.77
2019-05-06T07:15:54.390Z,60.04
2019-05-06T07:18:25.298Z,59.26
2019-05-06T07:20:55.960Z,59.17
2019-05-06T07:23:29.473Z,67.56
2019-05-06T07:26:02.836Z,66.74
2019-05-06T07:28:33.075Z,62.96
2019-05-06T07:31:17.520Z,49.75
2019-05-06T07:33:36.563Z,49.57
2019-05-06T07:36:07.474Z,51.04
2019-05-06T07:38:39.998Z,51.82
2019-05-06T07:41:14.734Z,52.78
2019-05-06T07:43:49.488Z,52.89
2019-05-06T07:46:23.571Z,52.99
2019-05-06T07:48:54.605Z,52.81
2019-05-06T07:51:25.498Z,52.96
2019-05-06T07:53:56.577Z,52.93
2019-05-06T07:56:27.456Z,53.04
2019-05-06T07:59:07.562Z,53.04
2019-05-06T08:01:43.475Z,52.90
2019-05-06T08:04:13.353Z,52.85
2019-05-06T08:06:44.241Z,52.83
2019-05-06T08:09:15.124Z,52.76
2019-05-06T08:11:46.033Z,52.62
2019-05-06T08:14:16.946Z,52.43
2019-05-06T08:16:55.184Z,52.07
2019-05-06T08:19:27.159Z,52.19
2019-05-06T08:21:59.691Z,51.86
2019-05-06T08:24:30.616Z,51.88
2019-05-06T08:27:05.462Z,51.41
2019-05-06T08:29:36.331Z,51.28
2019-05-06T08:32:07.239Z,51.11
2019-05-06T08:34:38.149Z,51.40
2019-05-06T08:37:12.085Z,50.71
2019-05-06T08:39:45.937Z,50.69
2019-05-06T08:42:15.764Z,50.61
2019-05-06T08:44:47.347Z,50.49
2019-05-06T08:47:18.251Z,50.34
2019-05-06T08:50:02.372Z,49.90
2019-05-06T08:52:52.321Z,49.75
2019-05-06T08:55:43.135Z,49.24
2019-05-06T08:58:14.131Z,48.79
2019-05-06T09:00:46.652Z,48.83
2019-05-06T09:03:17.564Z,48.58
2019-05-06T09:05:54.003Z,47.66
2019-05-06T09:08:25.107Z,47.64
2019-05-06T09:10:55.982Z,47.56
2019-05-06T09:13:27.542Z,47.77
2019-05-06T09:15:58.450Z,47.86
2019-05-06T09:18:29.339Z,47.76
2019-05-06T09:21:00.258Z,47.22
2019-05-06T09:23:32.716Z,45.87
2019-05-06T09:26:05.369Z,45.64
2019-05-06T09:28:36.016Z,44.50
2019-05-06T09:31:15.540Z,45.25
2019-05-06T09:33:48.065Z,45.06
2019-05-06T09:36:18.971Z,44.51
2019-05-06T09:38:49.855Z,44.03
2019-05-06T09:41:23.098Z,43.27
2019-05-06T09:43:53.359Z,42.66
2019-05-06T09:46:24.279Z,43.15
2019-05-06T09:49:08.379Z,42.33
2019-05-06T09:51:39.284Z,41.62
2019-05-06T09:54:23.543Z,41.86
2019-05-06T09:56:55.956Z,41.76
2019-05-06T09:59:27.429Z,41.64
2019-05-06T10:01:58.311Z,41.44
2019-05-06T10:04:29.220Z,41.41
2019-05-06T10:07:02.686Z,41.69
2019-05-06T10:09:33.835Z,41.39
2019-05-06T10:12:04.718Z,40.87
2019-05-06T10:14:35.627Z,40.48
2019-05-06T10:17:06.807Z,40.50
2019-05-06T10:19:37.926Z,40.80
2019-05-06T10:22:08.961Z,39.81
2019-05-06T10:24:39.833Z,38.73
2019-05-06T10:27:12.126Z,37.63
2019-05-06T10:29:44.843Z,38.29
2019-05-06T10:32:17.390Z,38.08
2019-05-06T10:34:48.293Z,38.71
2019-05-06T10:37:39.183Z,38.89
2019-05-06T10:40:16.812Z,38.17
2019-05-06T10:43:06.978Z,37.33
2019-05-06T10:45:37.892Z,36.74
2019-05-06T10:48:08.796Z,37.03
2019-05-06T10:50:41.318Z,37.40
2019-05-06T10:53:16.994Z,37.98
2019-05-06T10:55:54.725Z,37.29
2019-05-06T10:58:25.616Z,35.94
2019-05-06T11:01:04.244Z,35.69
2019-05-06T11:03:35.144Z,34.39
2019-05-06T11:06:06.030Z,33.66
2019-05-06T11:08:36.922Z,34.36
2019-05-06T11:11:15.189Z,34.51
2019-05-06T11:13:40.430Z,35.00
2019-05-06T11:16:12.927Z,35.32
2019-05-06T11:18:43.913Z,35.88
2019-05-06T11:21:14.811Z,35.69
2019-05-06T11:23:45.708Z,35.17
2019-05-06T11:26:16.646Z,34.59
2019-05-06T11:28:49.216Z,33.81
2019-05-06T11:31:28.990Z,34.01
2019-05-06T11:34:07.932Z,33.77
2019-05-06T11:36:49.350Z,34.22
2019-05-06T11:39:20.258Z,34.52
2019-05-06T11:42:14.427Z,35.16
2019-05-06T11:44:24.220Z,35.27
2019-05-06T11:46:55.146Z,35.28
2019-05-06T11:49:26.066Z,35.44
2019-05-06T11:51:56.959Z,35.56
2019-05-06T11:54:27.859Z,35.20
2019-05-06T11:56:58.790Z,33.23
2019-05-06T11:59:29.694Z,32.77
2019-05-06T12:02:02.889Z,32.46
2019-05-06T12:04:34.084Z,33.19
2019-05-06T12:07:11.295Z,32.39
2019-05-06T12:09:37.826Z,32.92
2019-05-06T12:12:08.736Z,32.78
2019-05-06T12:14:39.620Z,32.80
2019-05-06T12:17:12.622Z,33.63
2019-05-06T12:19:43.384Z,33.56
2019-05-06T12:22:14.389Z,33.82
2019-05-06T12:24:45.306Z,33.69
2019-05-06T12:27:17.834Z,33.57
2019-05-06T12:29:48.721Z,32.38
2019-05-06T12:32:23.974Z,32.64
2019-05-06T12:34:54.858Z,32.71
2019-05-06T12:37:27.350Z,32.55
2019-05-06T12:39:58.270Z,32.95
2019-05-06T12:42:33.005Z,32.36
2019-05-06T12:45:05.186Z,31.12
2019-05-06T12:47:49.575Z,31.02
2019-05-06T12:50:22.733Z,32.00
2019-05-06T12:52:57.559Z,32.47
2019-05-06T12:55:26.595Z,33.19
2019-05-06T12:57:57.490Z,33.23
2019-05-06T13:00:30.036Z,33.04
2019-05-06T13:03:02.247Z,33.19
2019-05-06T13:05:33.301Z,32.81
2019-05-06T13:08:06.149Z,32.80
2019-05-06T13:10:36.812Z,33.34
2019-05-06T13:13:07.697Z,33.80
2019-05-06T13:15:39.443Z,33.83
2019-05-06T13:18:10.326Z,34.30
2019-05-06T13:20:49.151Z,34.23
2019-05-06T13:23:35.386Z,34.27
2019-05-06T13:26:06.564Z,34.62
2019-05-06T13:28:39.110Z,34.80
2019-05-06T13:31:17.325Z,34.40
2019-05-06T13:33:44.734Z,34.67
2019-05-06T13:36:15.910Z,34.87
2019-05-06T13:38:47.384Z,35.14
2019-05-06T13:41:18.339Z,35.27
2019-05-06T13:43:53.872Z,35.10
2019-05-06T13:46:33.984Z,35.52
2019-05-06T13:49:04.653Z,35.21
2019-05-06T13:51:38.181Z,35.46
2019-05-06T13:54:12.780Z,35.29
2019-05-06T13:56:42.568Z,35.45
2019-05-06T13:59:13.791Z,35.79
2019-05-06T14:01:44.487Z,37.17
2019-05-06T14:04:16.716Z,38.56
2019-05-06T14:06:47.622Z,38.96
2019-05-06T14:09:31.221Z,40.19
2019-05-06T14:11:52.508Z,41.23
2019-05-06T14:14:23.490Z,42.42
2019-05-06T14:16:54.382Z,42.62
2019-05-06T14:19:25.305Z,43.37
2019-05-06T14:21:56.212Z,43.75
2019-05-06T14:24:27.672Z,44.13
2019-05-06T14:27:05.922Z,44.85
2019-05-06T14:29:38.443Z,44.40
2019-05-06T14:32:09.365Z,44.75
2019-05-06T14:34:40.241Z,44.81
2019-05-06T14:37:11.140Z,45.06
2019-05-06T14:39:54.017Z,44.95
2019-05-06T14:42:19.254Z,45.07
2019-05-06T14:44:50.139Z,45.25
2019-05-06T14:47:23.328Z,45.92
2019-05-06T14:49:54.335Z,45.91
2019-05-06T14:52:25.242Z,46.63
2019-05-06T14:54:57.766Z,47.36
2019-05-06T14:57:28.677Z,47.61
2019-05-06T14:59:59.567Z,47.99
2019-05-06T15:02:33.694Z,48.50
2019-05-06T15:05:03.265Z,48.53
2019-05-06T15:07:34.427Z,48.85
2019-05-06T15:10:18.907Z,48.80
2019-05-06T15:12:38.186Z,49.16
2019-05-06T15:15:09.658Z,49.08
2019-05-06T15:17:42.454Z,48.71
2019-05-06T15:20:13.150Z,48.86
2019-05-06T15:22:44.098Z,49.44
2019-05-06T15:25:15.005Z,49.27
2019-05-06T15:27:45.892Z,49.05
2019-05-06T15:30:18.406Z,49.30
2019-05-06T15:32:49.323Z,49.34
2019-05-06T15:35:22.382Z,49.20
2019-05-06T15:37:54.957Z,49.78
2019-05-06T15:40:32.486Z,49.30
2019-05-06T15:42:58.438Z,48.99
2019-05-06T15:45:29.345Z,49.31
2019-05-06T15:48:02.525Z,48.90
2019-05-06T15:50:32.960Z,48.65
2019-05-06T15:53:03.915Z,48.70
2019-05-06T15:55:34.826Z,48.78
2019-05-06T15:58:05.709Z,49.05
2019-05-06T16:00:36.607Z,49.20
2019-05-06T16:03:07.522Z,49.20
2019-05-06T16:05:38.402Z,49.25
2019-05-06T16:08:09.312Z,49.56
2019-05-06T16:10:51.910Z,49.60
2019-05-06T16:13:13.008Z,49.64
2019-05-06T16:15:43.911Z,49.73
2019-05-06T16:18:14.819Z,49.90
2019-05-06T16:20:45.724Z,50.33
2019-05-06T16:23:23.013Z,50.20
2019-05-06T16:25:53.552Z,50.54
2019-05-06T16:28:24.473Z,50.87
2019-05-06T16:30:55.379Z,50.89
2019-05-06T16:33:26.297Z,51.25
2019-05-06T16:35:57.212Z,51.09
2019-05-06T16:38:28.093Z,51.03
2019-05-06T16:41:10.520Z,51.24
2019-05-06T16:43:34.286Z,50.95
2019-05-06T16:46:04.693Z,51.16
2019-05-06T16:48:35.581Z,51.61
2019-05-06T16:51:06.538Z,51.47
2019-05-06T16:53:37.428Z,51.61
2019-05-06T16:56:15.957Z,51.53
2019-05-06T16:58:49.251Z,51.41
2019-05-06T17:01:22.117Z,51.63
2019-05-06T17:03:54.405Z,51.89
2019-05-06T17:06:32.469Z,52.00
2019-05-06T17:09:16.774Z,52.09
2019-05-06T17:11:35.459Z,52.32
2019-05-06T17:14:06.756Z,52.32
2019-05-06T17:16:37.668Z,52.39
2019-05-06T17:19:08.583Z,52.96
2019-05-06T17:21:42.110Z,52.99
2019-05-06T17:24:13.110Z,53.38
2019-05-06T17:26:44.123Z,53.47
2019-05-06T17:29:32.726Z,53.52
2019-05-06T17:32:17.338Z,54.20
2019-05-06T17:34:52.898Z,55.07
2019-05-06T17:37:42.164Z,55.58
2019-05-06T17:40:15.040Z,56.52
2019-05-06T17:42:45.911Z,56.63
2019-05-06T17:45:34.899Z,57.20
2019-05-06T17:48:16.396Z,57.53
2019-05-06T17:50:49.025Z,57.75
2019-05-06T17:53:19.915Z,58.17
2019-05-06T17:55:52.647Z,58.04
2019-05-06T17:58:23.596Z,58.07
2019-05-06T18:00:54.499Z,58.40
2019-05-06T18:03:25.426Z,59.03
2019-05-06T18:05:56.310Z,58.49
2019-05-06T18:08:27.673Z,58.29
2019-05-06T18:10:58.578Z,58.80
2019-05-06T18:13:29.499Z,58.98
2019-05-06T18:16:00.398Z,58.83
2019-05-06T18:18:31.322Z,58.99
2019-05-06T18:21:02.591Z,59.18
2019-05-06T18:23:33.708Z,59.07
2019-05-06T18:26:04.577Z,59.66
2019-05-06T18:28:35.599Z,59.99
2019-05-06T18:31:06.618Z,59.75
2019-05-06T18:33:37.804Z,60.47
2019-05-06T18:36:08.701Z,61.28
2019-05-06T18:38:39.615Z,61.45
2019-05-06T18:41:12.005Z,61.36
2019-05-06T18:43:42.956Z,60.88
2019-05-06T18:46:13.848Z,61.48
2019-05-06T18:48:44.745Z,61.59
2019-05-06T18:51:15.631Z,61.90
2019-05-06T18:53:46.511Z,62.47
2019-05-06T18:56:17.574Z,61.90
2019-05-06T18:58:48.641Z,62.44
2019-05-06T19:01:19.910Z,62.87
2019-05-06T19:03:52.625Z,63.58
2019-05-06T19:06:23.594Z,63.63
2019-05-06T19:09:12.617Z,64.32
2019-05-06T19:11:43.509Z,64.34
2019-05-06T19:14:14.380Z,64.78
2019-05-06T19:16:49.891Z,65.10
2019-05-06T19:19:17.845Z,65.36
2019-05-06T19:21:48.706Z,65.41
2019-05-06T19:24:19.604Z,65.94
2019-05-06T19:26:52.570Z,66.00
2019-05-06T19:29:23.392Z,66.28
2019-05-06T19:31:54.378Z,66.30
2019-05-06T19:34:25.248Z,66.35
2019-05-06T19:36:56.134Z,66.83
2019-05-06T19:39:27.609Z,67.03
2019-05-06T19:41:58.468Z,67.21
2019-05-06T19:44:29.351Z,67.67
2019-05-06T19:47:02.570Z,67.76
2019-05-06T19:49:33.557Z,67.63
2019-05-06T19:52:04.426Z,67.97
2019-05-06T19:54:35.485Z,68.12
2019-05-06T19:57:06.352Z,68.21
2019-05-06T19:59:37.242Z,68.91
2019-05-06T20:02:08.113Z,68.92
2019-05-06T20:04:44.010Z,68.73
2019-05-06T20:07:33.087Z,68.78
2019-05-06T20:10:08.053Z,68.65
2019-05-06T20:12:44.765Z,69.06
2019-05-06T20:15:33.580Z,69.61
2019-05-06T20:18:05.556Z,69.93
2019-05-06T20:20:36.710Z,69.73
2019-05-06T20:23:07.598Z,69.77
2019-05-06T20:25:38.737Z,70.13
2019-05-06T20:28:09.622Z,70.51
2019-05-06T20:30:42.271Z,70.31
2019-05-06T20:33:13.289Z,70.38
2019-05-06T20:35:44.180Z,70.57
2019-05-06T20:38:15.070Z,70.77
2019-05-06T20:40:45.940Z,70.74
2019-05-06T20:43:20.670Z,71.07
2019-05-06T20:45:49.396Z,71.13
2019-05-06T20:48:20.293Z,70.95
2019-05-06T20:50:52.386Z,71.68
2019-05-06T20:53:23.406Z,71.82
2019-05-06T20:55:54.310Z,71.70
2019-05-06T20:58:25.192Z,71.71
2019-05-06T21:00:56.088Z,71.78
2019-05-06T21:03:27.799Z,71.85
2019-05-06T21:05:58.672Z,71.98
2019-05-06T21:08:29.571Z,72.35
2019-05-06T21:11:00.456Z,72.44
2019-05-06T21:13:33.045Z,72.61
2019-05-06T21:16:04.062Z,72.36
2019-05-06T21:18:34.946Z,72.55
2019-05-06T21:21:05.854Z,72.74
2019-05-06T21:23:36.737Z,72.72
2019-05-06T21:26:07.630Z,72.72
2019-05-06T21:28:38.567Z,72.79
2019-05-06T21:31:09.477Z,72.86
2019-05-06T21:33:42.427Z,72.86
2019-05-06T21:36:12.955Z,72.70
2019-05-06T21:38:43.856Z,72.72
2019-05-06T21:41:17.591Z,72.81
2019-05-06T21:43:50.149Z,72.85
2019-05-06T21:46:19.941Z,72.94
2019-05-06T21:48:52.887Z,72.94
2019-05-06T21:51:23.442Z,73.04
2019-05-06T21:53:54.348Z,73.12
2019-05-06T21:56:25.234Z,73.16
2019-05-06T21:58:56.144Z,73.08
2019-05-06T22:01:27.459Z,73.27
2019-05-06T22:03:58.225Z,73.11
2019-05-06T22:06:29.096Z,73.61
2019-05-06T22:08:59.996Z,73.66
2019-05-06T22:11:32.244Z,73.62
2019-05-06T22:14:03.245Z,73.67
2019-05-06T22:16:34.132Z,73.69
2019-05-06T22:19:05.036Z,73.73
2019-05-06T22:21:37.621Z,73.72
2019-05-06T22:24:08.511Z,73.60
2019-05-06T22:26:39.407Z,73.71
2019-05-06T22:29:12.239Z,73.70
2019-05-06T22:31:42.892Z,73.62
2019-05-06T22:34:15.828Z,73.58
2019-05-06T22:36:46.401Z,73.70
2019-05-06T22:39:17.310Z,73.37
2019-05-06T22:41:48.189Z,73.34
2019-05-06T22:44:19.090Z,73.21
2019-05-06T22:46:49.998Z,73.11
2019-05-06T22:49:22.562Z,73.25
2019-05-06T22:51:53.663Z,73.18
2019-05-06T22:54:24.663Z,73.28
2019-05-06T22:56:55.534Z,73.09
2019-05-06T22:59:26.381Z,73.17
2019-05-06T23:02:07.918Z,73.10
2019-05-06T23:04:40.522Z,73.02
2019-05-06T23:07:11.409Z,73.00
2019-05-06T23:09:42.596Z,73.00
2019-05-06T23:12:13.549Z,73.21
2019-05-06T23:14:44.444Z,73.22
2019-05-06T23:17:15.323Z,73.35
2019-05-06T23:19:46.225Z,73.39
2019-05-06T23:22:17.112Z,73.37
2019-05-06T23:24:48.098Z,73.52
2019-05-06T23:27:18.975Z,73.55
2019-05-06T23:29:49.862Z,73.60
2019-05-06T23:32:22.743Z,73.47
2019-05-06T23:34:53.348Z,73.58
2019-05-06T23:37:23.436Z,73.53
2019-05-06T23:40:49.618Z,73.72
2019-05-06T23:44:15.709Z,73.79
2019-05-06T23:47:42.222Z,73.80
2019-05-06T23:51:08.286Z,74.04
2019-05-06T23:54:34.037Z,74.16
2019-05-06T23:57:03.522Z,74.18
2019-05-06T23:59:34.429Z,74.25
